Time;durP1;ratioP1;P1;durP2;ratioP2;P2;SDS_P1;SDS_P2;PMS_P1;PMS_P2;Temp;Humidity;BMP_temperature;BMP_pressure;BME280_temperature;BME280_humidity;BME280_pressure;Samples;Min_cycle;Max_cycle;Signal;HPM_P1;HPM_P2
2022/07/13 00:02:16;;;;;;;6.67;6.07;;;15.80;99.90;;;;;;5069987;28;20179;-48
2022/07/13 00:04:42;;;;;;;6.50;6.00;;;15.80;99.90;;;;;;5069202;28;20645;-52
2022/07/13 00:07:07;;;;;;;6.20;5.80;;;15.70;99.90;;;;;;5069733;28;20185;-53
2022/07/13 00:09:33;;;;;;;6.23;5.73;;;15.70;99.90;;;;;;5069711;28;20213;-52
2022/07/13 00:11:59;;;;;;;6.10;5.70;;;15.60;99.90;;;;;;5070600;28;20182;-53
2022/07/13 00:14:24;;;;;;;6.47;5.97;;;15.60;99.90;;;;;;5068535;28;20644;-50
2022/07/13 00:16:50;;;;;;;6.20;5.70;;;15.60;99.90;;;;;;5074042;28;20188;-49
2022/07/13 00:19:15;;;;;;;5.63;5.33;;;15.50;99.90;;;;;;5072665;28;20202;-51
2022/07/13 00:21:41;;;;;;;6.00;5.60;;;15.50;99.90;;;;;;5069375;28;20181;-48
2022/07/13 00:24:07;;;;;;;5.90;5.50;;;15.40;99.90;;;;;;5069250;28;20184;-51
2022/07/13 00:26:32;;;;;;;5.83;5.43;;;15.40;99.90;;;;;;5081371;28;20271;-50
2022/07/13 00:28:58;;;;;;;5.53;5.13;;;15.30;99.90;;;;;;5069287;28;20707;-50
2022/07/13 00:31:24;;;;;;;6.00;5.60;;;15.30;99.90;;;;;;5067792;28;20200;-52
2022/07/13 00:33:49;;;;;;;6.53;5.93;;;15.20;99.90;;;;;;5069366;28;20186;-52
2022/07/13 00:36:15;;;;;;;5.83;5.47;;;15.20;99.90;;;;;;5070001;28;20920;-49
2022/07/13 00:38:41;;;;;;;5.87;5.47;;;15.10;99.90;;;;;;5068746;28;20209;-50
2022/07/13 00:41:07;;;;;;;5.87;5.40;;;15.10;99.90;;;;;;5067441;28;20189;-51
2022/07/13 00:43:33;;;;;;;6.00;5.67;;;15.10;99.90;;;;;;5068843;28;20907;-51
2022/07/13 00:45:59;;;;;;;6.00;5.47;;;15.10;99.90;;;;;;5071235;28;20686;-53
2022/07/13 00:48:25;;;;;;;6.10;5.60;;;15.00;99.90;;;;;;5069822;28;20263;-51
2022/07/13 00:50:51;;;;;;;5.53;5.10;;;15.00;99.90;;;;;;5069890;28;20408;-51
2022/07/13 00:53:18;;;;;;;7.13;6.53;;;15.00;99.90;;;;;;5067716;28;20432;-52
2022/07/13 00:55:45;;;;;;;5.90;5.60;;;14.90;99.90;;;;;;5070010;28;20173;-51
2022/07/13 00:58:11;;;;;;;6.10;5.70;;;14.90;99.90;;;;;;5068784;28;20455;-50
2022/07/13 01:00:37;;;;;;;6.57;6.07;;;14.80;99.90;;;;;;5068881;28;20981;-50
2022/07/13 01:03:02;;;;;;;5.47;5.07;;;14.80;99.90;;;;;;5068904;28;20565;-49
2022/07/13 01:05:28;;;;;;;8.30;7.53;;;14.80;99.90;;;;;;5067594;28;20178;-48
2022/07/13 01:07:54;;;;;;;6.00;5.40;;;14.80;99.90;;;;;;5054523;28;20275;-51
2022/07/13 01:10:21;;;;;;;5.77;5.27;;;14.70;99.90;;;;;;5069459;28;20174;-48
2022/07/13 01:12:46;;;;;;;5.83;5.43;;;14.70;99.90;;;;;;5049584;28;20474;-49
2022/07/13 01:15:12;;;;;;;5.47;5.10;;;14.60;99.90;;;;;;5067776;28;20481;-50
2022/07/13 01:17:38;;;;;;;5.20;4.80;;;14.60;99.90;;;;;;5073619;28;20272;-52
2022/07/13 01:20:06;;;;;;;4.97;4.57;;;14.60;99.90;;;;;;5069275;28;20205;-54
2022/07/13 01:22:41;;;;;;;5.67;4.87;;;14.60;99.90;;;;;;5067659;28;20423;-52
2022/07/13 01:25:07;;;;;;;5.27;4.97;;;14.50;99.90;;;;;;5063453;28;20977;-49
2022/07/13 01:27:35;;;;;;;5.20;4.90;;;14.50;99.90;;;;;;5071200;28;20436;-52
2022/07/13 01:30:01;;;;;;;5.80;5.20;;;14.50;99.90;;;;;;5072250;28;20473;-51
2022/07/13 01:32:26;;;;;;;5.50;5.10;;;14.40;99.90;;;;;;5068424;28;20986;-50
2022/07/13 01:34:52;;;;;;;4.90;4.50;;;14.40;99.90;;;;;;5067093;28;20178;-49
2022/07/13 01:37:18;;;;;;;5.03;4.73;;;14.40;99.90;;;;;;5069262;28;20173;-48
2022/07/13 01:39:44;;;;;;;5.23;4.83;;;14.30;99.90;;;;;;5074632;28;20178;-53
2022/07/13 01:42:10;;;;;;;5.53;5.10;;;14.30;99.90;;;;;;5069046;28;20419;-48
2022/07/13 01:44:35;;;;;;;5.03;4.67;;;14.30;99.90;;;;;;5067354;28;20493;-49
2022/07/13 01:47:11;;;;;;;5.20;4.90;;;14.30;99.90;;;;;;5068862;28;20177;-53
2022/07/13 01:49:36;;;;;;;5.70;5.30;;;14.30;99.90;;;;;;5071470;28;20208;-51
2022/07/13 01:52:02;;;;;;;4.93;4.63;;;14.20;99.90;;;;;;5088294;28;20414;-50
2022/07/13 01:54:28;;;;;;;5.43;5.10;;;14.20;99.90;;;;;;5070713;28;20527;-48
2022/07/13 01:56:53;;;;;;;5.80;5.30;;;14.20;99.90;;;;;;5068675;28;20526;-51
2022/07/13 01:59:19;;;;;;;5.43;4.93;;;14.20;99.90;;;;;;5067147;28;20204;-49
2022/07/13 02:01:44;;;;;;;5.00;4.70;;;14.30;99.90;;;;;;5068855;28;20533;-51
2022/07/13 02:04:11;;;;;;;5.20;4.70;;;14.30;99.90;;;;;;5065265;28;20231;-49
2022/07/13 02:06:37;;;;;;;5.00;4.50;;;14.30;99.90;;;;;;5076903;28;20242;-50
2022/07/13 02:09:03;;;;;;;4.90;4.60;;;14.20;99.90;;;;;;5063429;28;20476;-49
2022/07/13 02:11:29;;;;;;;4.93;4.60;;;14.30;99.90;;;;;;5064725;28;20181;-52
2022/07/13 02:13:54;;;;;;;5.03;4.73;;;14.30;99.90;;;;;;5065694;28;20802;-49
2022/07/13 02:16:21;;;;;;;5.13;4.83;;;14.40;99.90;;;;;;5078551;28;20185;-51
2022/07/13 02:18:47;;;;;;;5.53;4.70;;;14.40;99.90;;;;;;5070669;28;20206;-51
2022/07/13 02:21:12;;;;;;;5.23;4.80;;;14.40;99.90;;;;;;5068268;28;20490;-54
2022/07/13 02:23:39;;;;;;;5.90;4.77;;;14.40;99.90;;;;;;5068659;28;20439;-53
2022/07/13 02:26:04;;;;;;;5.07;4.67;;;14.30;99.90;;;;;;5071339;28;20288;-50
2022/07/13 02:28:30;;;;;;;4.83;4.53;;;14.30;99.90;;;;;;5072540;28;20474;-51
2022/07/13 02:30:56;;;;;;;5.40;4.90;;;14.40;99.90;;;;;;5072743;28;20704;-47
2022/07/13 02:33:21;;;;;;;4.90;4.50;;;14.50;99.90;;;;;;5071653;28;20608;-50
2022/07/13 02:35:47;;;;;;;5.00;4.60;;;14.50;99.90;;;;;;5072231;28;20188;-47
2022/07/13 02:38:12;;;;;;;4.67;4.37;;;14.50;99.90;;;;;;5071411;28;20645;-49
2022/07/13 02:40:38;;;;;;;5.13;4.83;;;14.50;99.90;;;;;;5071363;28;20537;-51
2022/07/13 02:43:03;;;;;;;4.70;4.40;;;14.50;99.90;;;;;;5070557;28;20273;-51
2022/07/13 02:45:29;;;;;;;5.43;5.00;;;14.60;99.90;;;;;;5073849;28;20200;-50
2022/07/13 02:47:55;;;;;;;5.27;4.97;;;14.60;99.90;;;;;;5070342;28;20230;-49
2022/07/13 02:50:20;;;;;;;5.40;4.90;;;14.50;99.90;;;;;;5070754;28;20747;-48
2022/07/13 02:52:46;;;;;;;5.40;5.10;;;14.50;99.90;;;;;;5072155;28;20190;-49
2022/07/13 02:55:11;;;;;;;5.03;4.63;;;14.50;99.90;;;;;;5052266;28;20194;-48
2022/07/13 02:57:38;;;;;;;4.93;4.63;;;14.50;99.90;;;;;;5071631;28;20181;-54
2022/07/13 03:00:05;;;;;;;5.20;4.90;;;14.50;99.90;;;;;;5073801;28;20236;-52
2022/07/13 03:02:31;;;;;;;5.33;4.83;;;14.40;99.90;;;;;;5081133;28;20419;-50
2022/07/13 03:04:56;;;;;;;4.90;4.60;;;14.50;99.90;;;;;;5069708;28;21254;-53
2022/07/13 03:07:22;;;;;;;5.10;4.70;;;14.60;99.90;;;;;;5056901;28;20218;-52
2022/07/13 03:09:47;;;;;;;5.00;4.60;;;14.60;99.90;;;;;;5053181;28;20563;-53
2022/07/13 03:12:13;;;;;;;5.23;4.93;;;14.60;99.90;;;;;;5065190;28;20271;-50
2022/07/13 03:14:39;;;;;;;5.43;5.10;;;14.70;99.90;;;;;;5070451;28;20651;-53
2022/07/13 03:17:05;;;;;;;6.53;5.27;;;14.70;99.90;;;;;;5078498;28;20224;-49
2022/07/13 03:19:31;;;;;;;5.50;5.10;;;14.70;99.90;;;;;;5070060;28;20216;-50
2022/07/13 03:21:56;;;;;;;5.30;4.90;;;14.70;99.90;;;;;;5071252;28;20432;-52
2022/07/13 03:24:22;;;;;;;5.17;4.87;;;14.80;99.90;;;;;;5069961;28;20190;-48
2022/07/13 03:26:47;;;;;;;5.33;5.00;;;14.80;99.90;;;;;;5071029;28;20189;-49
2022/07/13 03:29:13;;;;;;;4.80;4.50;;;14.80;99.90;;;;;;5070790;28;20209;-52
2022/07/13 03:31:38;;;;;;;5.17;4.80;;;14.80;99.90;;;;;;5069051;28;20186;-50
2022/07/13 03:34:04;;;;;;;5.50;5.17;;;14.90;99.90;;;;;;5070107;28;20209;-51
2022/07/13 03:36:30;;;;;;;5.20;4.80;;;14.90;99.90;;;;;;5071435;28;20588;-51
2022/07/13 03:38:56;;;;;;;5.50;5.00;;;14.90;99.90;;;;;;5069870;28;21024;-51
2022/07/13 03:41:22;;;;;;;5.30;4.93;;;14.90;99.90;;;;;;5070418;28;20427;-50
2022/07/13 03:43:47;;;;;;;5.57;5.20;;;14.90;99.90;;;;;;5068183;28;20185;-51
2022/07/13 03:46:13;;;;;;;5.00;4.70;;;14.90;99.90;;;;;;5070840;28;20201;-52
2022/07/13 03:48:39;;;;;;;5.90;5.30;;;14.90;99.90;;;;;;5080543;28;20209;-50
2022/07/13 03:51:04;;;;;;;4.87;4.57;;;14.90;99.90;;;;;;5068719;28;20269;-51
2022/07/13 03:53:31;;;;;;;4.97;4.67;;;15.00;99.90;;;;;;5068438;28;20178;-49
2022/07/13 03:55:57;;;;;;;5.60;5.10;;;15.00;99.90;;;;;;5070418;28;20181;-50
2022/07/13 03:58:22;;;;;;;5.33;4.83;;;15.00;99.90;;;;;;5070579;28;20827;-49
2022/07/13 04:00:48;;;;;;;5.30;4.90;;;15.10;99.90;;;;;;5073708;28;20726;-51
2022/07/13 04:03:13;;;;;;;4.97;4.57;;;15.10;99.90;;;;;;5068589;28;20185;-49
2022/07/13 04:05:39;;;;;;;4.90;4.60;;;15.10;99.90;;;;;;5070778;28;20196;-51
2022/07/13 04:08:04;;;;;;;5.10;4.70;;;15.20;99.90;;;;;;5068744;28;20557;-53
2022/07/13 04:10:30;;;;;;;4.77;4.40;;;15.10;99.90;;;;;;5068597;28;20254;-51
2022/07/13 04:12:58;;;;;;;5.03;4.60;;;15.20;99.90;;;;;;5053003;28;20189;-50
2022/07/13 04:15:24;;;;;;;5.03;4.67;;;15.30;99.90;;;;;;5067653;28;20280;-48
2022/07/13 04:17:49;;;;;;;5.13;4.63;;;15.30;99.90;;;;;;5069087;28;20550;-52
2022/07/13 04:20:15;;;;;;;4.90;4.50;;;15.40;99.90;;;;;;5060569;28;20217;-50
2022/07/13 04:22:40;;;;;;;5.60;4.60;;;15.40;99.90;;;;;;5051736;28;20755;-54
2022/07/13 04:25:06;;;;;;;5.73;5.33;;;15.50;99.90;;;;;;5070351;28;20190;-49
2022/07/13 04:27:32;;;;;;;5.10;4.70;;;15.50;99.90;;;;;;5069381;28;20195;-52
2022/07/13 04:29:57;;;;;;;4.67;4.37;;;15.60;99.90;;;;;;5064484;28;20684;-49
2022/07/13 04:32:23;;;;;;;4.60;4.30;;;15.60;99.90;;;;;;5068471;28;20214;-49
2022/07/13 04:34:50;;;;;;;5.10;4.70;;;15.60;99.90;;;;;;5068741;28;20835;-50
2022/07/13 04:37:15;;;;;;;4.90;4.60;;;15.70;99.90;;;;;;5069699;28;20448;-53
2022/07/13 04:39:41;;;;;;;6.30;5.13;;;15.80;99.90;;;;;;5067860;28;20438;-50
2022/07/13 04:42:08;;;;;;;6.23;5.50;;;15.80;99.90;;;;;;5080713;28;20251;-49
2022/07/13 04:44:33;;;;;;;6.30;5.27;;;15.90;99.90;;;;;;5068768;28;20272;-50
2022/07/13 04:46:59;;;;;;;5.73;5.13;;;16.00;99.90;;;;;;5068280;28;20533;-49
2022/07/13 04:49:25;;;;;;;5.87;5.37;;;15.90;99.90;;;;;;5043367;28;20752;-52
2022/07/13 04:51:50;;;;;;;4.90;4.50;;;15.90;99.90;;;;;;5064742;28;20194;-49
2022/07/13 04:54:20;;;;;;;5.80;5.30;;;15.90;99.90;;;;;;5068361;28;20800;-49
2022/07/13 04:56:45;;;;;;;5.27;4.77;;;16.00;99.90;;;;;;5067248;28;20215;-50
2022/07/13 04:59:12;;;;;;;4.97;4.47;;;16.00;99.90;;;;;;5069410;28;20461;-51
2022/07/13 05:01:38;;;;;;;6.23;5.00;;;16.00;99.90;;;;;;5078689;28;20231;-51
2022/07/13 05:04:04;;;;;;;5.00;4.60;;;16.10;99.90;;;;;;5064371;28;20455;-49
2022/07/13 05:06:30;;;;;;;5.40;5.00;;;16.10;99.90;;;;;;5067807;28;20960;-54
2022/07/13 05:08:56;;;;;;;5.73;5.00;;;16.20;99.90;;;;;;5056496;28;20975;-52
2022/07/13 05:11:21;;;;;;;4.93;4.63;;;16.20;99.90;;;;;;5049301;28;20448;-51
2022/07/13 05:13:47;;;;;;;6.70;5.10;;;16.20;99.90;;;;;;5067246;28;20441;-50
2022/07/13 05:16:13;;;;;;;5.17;4.87;;;16.30;99.90;;;;;;5068375;28;20184;-52
2022/07/13 05:18:38;;;;;;;5.20;4.80;;;16.30;99.90;;;;;;5065406;28;20188;-49
2022/07/13 05:21:04;;;;;;;5.20;4.80;;;16.40;99.90;;;;;;5068245;28;20192;-51
2022/07/13 05:23:30;;;;;;;4.80;4.50;;;16.40;99.90;;;;;;5065391;28;20188;-50
2022/07/13 05:25:55;;;;;;;4.90;4.60;;;16.40;99.90;;;;;;5067568;28;20529;-52
2022/07/13 05:28:21;;;;;;;4.97;4.67;;;16.50;99.90;;;;;;5066844;28;20213;-54
2022/07/13 05:30:46;;;;;;;5.57;5.07;;;16.50;99.90;;;;;;5066937;28;20192;-54
2022/07/13 05:33:14;;;;;;;5.33;4.83;;;16.50;99.90;;;;;;5073451;28;20197;-48
2022/07/13 05:35:40;;;;;;;5.50;5.10;;;16.60;99.90;;;;;;5085924;28;20586;-49
2022/07/13 05:38:06;;;;;;;5.60;5.13;;;16.70;99.90;;;;;;5082540;28;20930;-53
2022/07/13 05:40:32;;;;;;;4.90;4.60;;;16.80;99.90;;;;;;5074588;28;20468;-48
2022/07/13 05:42:57;;;;;;;5.07;4.77;;;16.90;99.90;;;;;;5067477;28;20185;-54
2022/07/13 05:45:24;;;;;;;5.23;4.87;;;17.00;99.90;;;;;;5067922;28;20268;-51
2022/07/13 05:47:50;;;;;;;5.30;4.80;;;17.10;99.90;;;;;;5075277;28;20258;-51
2022/07/13 05:50:15;;;;;;;5.00;4.70;;;17.20;99.90;;;;;;5068689;28;20502;-48
2022/07/13 05:52:41;;;;;;;5.23;4.83;;;17.30;99.90;;;;;;5068785;28;20188;-52
2022/07/13 05:55:08;;;;;;;5.17;4.77;;;17.20;99.90;;;;;;5068630;28;20192;-49
2022/07/13 05:57:34;;;;;;;5.70;5.30;;;17.30;99.90;;;;;;5066167;28;20439;-49
2022/07/13 06:00:00;;;;;;;5.40;5.00;;;17.40;99.90;;;;;;5068199;28;20475;-48
2022/07/13 06:02:26;;;;;;;7.53;6.93;;;17.50;99.90;;;;;;5077319;28;20442;-50
2022/07/13 06:04:51;;;;;;;5.10;4.80;;;17.70;99.90;;;;;;5068742;28;20253;-51
2022/07/13 06:07:17;;;;;;;5.40;5.00;;;17.80;99.90;;;;;;5061915;28;20198;-52
2022/07/13 06:09:42;;;;;;;5.60;4.90;;;18.00;99.90;;;;;;5068913;28;20284;-48
2022/07/13 06:12:08;;;;;;;4.90;4.60;;;18.10;99.90;;;;;;5052300;28;20228;-47
2022/07/13 06:14:33;;;;;;;4.93;4.60;;;18.20;99.90;;;;;;5062377;28;20181;-51
2022/07/13 06:16:59;;;;;;;5.90;5.50;;;18.20;99.90;;;;;;5045804;28;20197;-51
2022/07/13 06:19:25;;;;;;;5.30;4.80;;;18.30;99.90;;;;;;5049194;28;20201;-54
2022/07/13 06:21:51;;;;;;;5.13;4.83;;;18.50;99.90;;;;;;5054300;28;20225;-49
2022/07/13 06:24:16;;;;;;;5.77;5.37;;;18.60;99.90;;;;;;5043847;28;20185;-51
2022/07/13 06:26:42;;;;;;;5.47;4.97;;;18.80;99.90;;;;;;5053161;28;20194;-51
2022/07/13 06:29:07;;;;;;;6.40;5.47;;;18.80;99.90;;;;;;5051032;28;20356;-53
2022/07/13 06:31:33;;;;;;;6.03;5.63;;;18.70;99.90;;;;;;5049417;28;20192;-53
2022/07/13 06:33:59;;;;;;;5.70;5.20;;;18.90;99.90;;;;;;5059657;28;20177;-53
2022/07/13 06:36:24;;;;;;;5.10;4.73;;;18.80;99.90;;;;;;5058883;28;20262;-51
2022/07/13 06:38:50;;;;;;;8.50;7.90;;;19.00;99.90;;;;;;5065782;28;20181;-51
2022/07/13 06:41:16;;;;;;;5.77;5.47;;;19.10;99.90;;;;;;5064603;28;20181;-51
2022/07/13 06:43:42;;;;;;;6.13;5.73;;;19.30;99.90;;;;;;5065028;28;20453;-49
2022/07/13 06:46:08;;;;;;;5.90;5.40;;;19.40;99.90;;;;;;5042208;28;20273;-54
2022/07/13 06:48:37;;;;;;;7.40;5.10;;;19.60;99.90;;;;;;5064619;28;20197;-52
2022/07/13 06:51:04;;;;;;;5.50;5.07;;;19.90;99.90;;;;;;5065794;28;20454;-52
2022/07/13 06:53:30;;;;;;;5.60;5.10;;;20.10;99.90;;;;;;5065771;28;20416;-52
2022/07/13 06:55:56;;;;;;;5.77;5.37;;;20.30;99.30;;;;;;5051772;28;21173;-53
2022/07/13 06:58:21;;;;;;;5.80;5.40;;;20.30;98.80;;;;;;5076038;28;20451;-52
2022/07/13 07:00:47;;;;;;;5.37;4.87;;;20.40;98.80;;;;;;5067289;28;20472;-51
2022/07/13 07:03:13;;;;;;;5.77;5.27;;;20.50;98.30;;;;;;5065740;28;20219;-54
2022/07/13 07:05:39;;;;;;;6.10;5.27;;;20.60;97.60;;;;;;5065314;28;20431;-49
2022/07/13 07:08:05;;;;;;;5.10;4.70;;;20.70;97.40;;;;;;5063829;28;20191;-53
2022/07/13 07:10:31;;;;;;;6.13;5.40;;;21.00;97.10;;;;;;5067385;28;20431;-50
2022/07/13 07:12:56;;;;;;;6.30;5.80;;;21.00;96.00;;;;;;5050111;28;20246;-52
2022/07/13 07:15:23;;;;;;;5.60;5.10;;;21.00;96.20;;;;;;5068727;28;20508;-51
2022/07/13 07:17:49;;;;;;;5.47;5.07;;;21.30;95.40;;;;;;5069087;28;20192;-55
2022/07/13 07:20:15;;;;;;;6.03;5.63;;;21.50;94.80;;;;;;5068893;28;20531;-51
2022/07/13 07:22:41;;;;;;;5.00;4.70;;;21.70;94.60;;;;;;5068918;28;20432;-51
2022/07/13 07:25:08;;;;;;;5.17;4.67;;;22.00;94.40;;;;;;5067620;28;20485;-53
2022/07/13 07:27:34;;;;;;;4.90;4.60;;;22.20;93.00;;;;;;5076638;28;20439;-53
2022/07/13 07:29:59;;;;;;;6.70;5.00;;;22.50;92.10;;;;;;5070413;28;20471;-52
2022/07/13 07:32:25;;;;;;;5.20;4.80;;;22.60;91.50;;;;;;5066042;28;20318;-50
2022/07/13 07:34:50;;;;;;;5.30;4.93;;;22.80;90.30;;;;;;5068298;28;20272;-52
2022/07/13 07:37:20;;;;;;;6.73;5.10;;;22.70;90.00;;;;;;5067442;28;20186;-49
2022/07/13 07:39:45;;;;;;;5.30;5.00;;;22.70;88.80;;;;;;5062825;28;20211;-53
2022/07/13 07:42:12;;;;;;;5.27;4.97;;;22.60;88.60;;;;;;5065480;28;20431;-54
2022/07/13 07:44:37;;;;;;;5.63;5.20;;;22.60;89.80;;;;;;5070842;28;20278;-52
2022/07/13 07:47:03;;;;;;;4.93;4.63;;;22.70;90.80;;;;;;5068881;28;20424;-50
2022/07/13 07:49:28;;;;;;;5.80;5.50;;;22.70;90.50;;;;;;5078989;28;20273;-51
2022/07/13 07:51:54;;;;;;;5.10;4.87;;;22.70;90.00;;;;;;5068629;28;20664;-52
2022/07/13 07:54:19;;;;;;;5.90;5.50;;;22.50;88.80;;;;;;5066745;28;20215;-53
2022/07/13 07:56:45;;;;;;;6.00;5.50;;;22.50;89.50;;;;;;5074510;28;20184;-52
2022/07/13 07:59:11;;;;;;;9.43;5.30;;;22.70;90.20;;;;;;5068183;28;20196;-51
2022/07/13 08:01:36;;;;;;;5.30;4.80;;;22.80;90.10;;;;;;5067324;28;20606;-47
2022/07/13 08:04:02;;;;;;;5.80;5.30;;;22.90;90.60;;;;;;5068827;28;20664;-53
2022/07/13 08:06:28;;;;;;;6.00;5.20;;;23.10;89.90;;;;;;5068940;28;20640;-50
2022/07/13 08:08:54;;;;;;;6.63;6.00;;;23.30;88.10;;;;;;5068022;28;20467;-51
2022/07/13 08:11:20;;;;;;;5.20;4.70;;;23.30;86.10;;;;;;5068773;28;20340;-51
2022/07/13 08:13:46;;;;;;;5.40;5.00;;;23.50;84.40;;;;;;5059794;28;20201;-51
2022/07/13 08:16:12;;;;;;;6.10;4.70;;;23.80;82.40;;;;;;5069194;28;20786;-51
2022/07/13 08:18:38;;;;;;;4.70;4.40;;;24.00;81.50;;;;;;5063482;28;20882;-52
2022/07/13 08:21:04;;;;;;;5.50;5.20;;;24.30;80.70;;;;;;5068343;28;20420;-50
2022/07/13 08:26:14;;;;;;;6.10;5.30;;;24.90;78.70;;;;;;5068506;28;20216;-54
2022/07/13 08:28:39;;;;;;;4.90;4.60;;;25.00;76.90;;;;;;5066532;28;20499;-53
2022/07/13 08:31:05;;;;;;;5.53;5.03;;;25.10;76.40;;;;;;5067789;28;20195;-50
2022/07/13 08:39:01;;;;;;;4.87;4.37;;;25.20;73.20;;;;;;5065946;28;20492;-53
2022/07/13 08:41:28;;;;;;;5.60;5.10;;;25.20;73.20;;;;;;5067438;28;20423;-52
2022/07/13 08:43:54;;;;;;;5.83;4.70;;;25.30;72.50;;;;;;5066656;28;20181;-49
2022/07/13 08:46:21;;;;;;;7.40;4.73;;;25.50;70.00;;;;;;5073398;28;20435;-51
2022/07/13 08:48:49;;;;;;;4.70;4.40;;;25.80;70.50;;;;;;5080136;28;20203;-50
2022/07/13 08:51:20;;;;;;;4.70;4.40;;;26.20;68.60;;;;;;5065748;28;20945;-51
2022/07/13 08:53:45;;;;;;;5.93;5.00;;;26.50;64.80;;;;;;5067701;28;20427;-53
2022/07/13 08:56:11;;;;;;;5.10;4.77;;;26.90;61.00;;;;;;5074629;28;21289;-53
2022/07/13 08:58:37;;;;;;;5.20;4.80;;;27.30;59.60;;;;;;5067095;28;20216;-52
2022/07/13 09:01:05;;;;;;;5.20;4.70;;;27.50;59.10;;;;;;5065321;28;20568;-50
2022/07/13 09:03:34;;;;;;;7.10;4.30;;;28.10;53.20;;;;;;5064219;28;20185;-49
2022/07/13 09:05:59;;;;;;;5.50;5.10;;;28.70;51.60;;;;;;5066775;28;21247;-51
2022/07/13 09:08:25;;;;;;;5.00;4.70;;;28.90;50.40;;;;;;5064763;28;20443;-50
2022/07/13 09:10:59;;;;;;;5.87;5.37;;;29.40;47.30;;;;;;5067108;28;20185;-55
2022/07/13 09:13:39;;;;;;;5.20;4.73;;;29.80;45.30;;;;;;5066578;28;20227;-51
2022/07/13 09:16:22;;;;;;;5.90;5.27;;;30.00;44.40;;;;;;5065691;28;20450;-52
2022/07/13 09:18:50;;;;;;;4.63;4.33;;;30.40;43.60;;;;;;5066324;28;20493;-49
2022/07/13 09:21:17;;;;;;;5.27;4.20;;;31.00;39.80;;;;;;5065648;28;20809;-53
2022/07/13 09:23:43;;;;;;;4.97;4.57;;;31.40;35.50;;;;;;5066396;28;20408;-53
2022/07/13 09:26:09;;;;;;;5.10;4.73;;;31.40;35.60;;;;;;5073687;28;20446;-50
2022/07/13 09:28:43;;;;;;;4.50;4.20;;;31.40;36.70;;;;;;5065792;28;20969;-51
2022/07/13 09:31:09;;;;;;;5.10;4.70;;;31.80;35.30;;;;;;5066860;28;20252;-54
2022/07/13 09:33:36;;;;;;;4.70;4.40;;;32.20;33.30;;;;;;5065209;28;20416;-48
2022/07/13 09:36:25;;;;;;;4.63;4.43;;;32.50;32.20;;;;;;5066413;28;20420;-50
2022/07/13 09:38:53;;;;;;;4.80;4.40;;;32.50;29.40;;;;;;5065216;28;20416;-50
2022/07/13 09:41:24;;;;;;;6.60;4.70;;;32.40;30.70;;;;;;5066476;28;20527;-53
2022/07/13 09:46:58;;;;;;;4.30;4.00;;;33.40;29.70;;;;;;5059457;28;20739;-50
2022/07/13 09:49:42;;;;;;;4.93;4.53;;;33.80;27.70;;;;;;5066350;28;20478;-50
2022/07/13 09:52:10;;;;;;;4.33;4.13;;;34.20;27.80;;;;;;5065145;28;20428;-49
2022/07/13 09:54:39;;;;;;;4.27;3.97;;;34.50;26.20;;;;;;5072355;28;20831;-54
2022/07/13 09:57:08;;;;;;;3.87;3.73;;;34.80;22.10;;;;;;5070418;28;20867;-50
2022/07/13 09:59:36;;;;;;;3.93;3.73;;;34.20;22.20;;;;;;5066134;28;20940;-55
2022/07/13 10:02:02;;;;;;;3.77;3.50;;;33.80;23.40;;;;;;5065970;28;20424;-50
2022/07/13 10:04:30;;;;;;;4.20;3.80;;;33.40;23.00;;;;;;5065670;28;20440;-48
2022/07/13 10:06:56;;;;;;;4.73;4.17;;;32.90;23.70;;;;;;5048389;28;20498;-53
2022/07/13 10:09:27;;;;;;;3.57;3.37;;;32.50;24.20;;;;;;5066038;28;20571;-52
2022/07/13 10:11:52;;;;;;;3.83;3.47;;;32.30;22.20;;;;;;5066277;28;20416;-52
2022/07/13 10:14:18;;;;;;;3.77;3.63;;;31.90;23.50;;;;;;5063107;28;20427;-51
2022/07/13 10:16:45;;;;;;;4.60;4.30;;;31.50;24.20;;;;;;5066487;28;20411;-50
2022/07/13 10:19:12;;;;;;;3.77;3.57;;;31.50;24.00;;;;;;5066594;28;20403;-50
2022/07/13 10:22:01;;;;;;;4.37;4.03;;;31.80;23.50;;;;;;5065695;28;20442;-51
2022/07/13 10:24:30;;;;;;;4.20;3.80;;;32.00;23.20;;;;;;5064246;28;20455;-51
2022/07/13 10:27:27;;;;;;;4.27;4.07;;;32.70;23.70;;;;;;5068460;28;20439;-51
2022/07/13 10:30:14;;;;;;;4.50;4.30;;;34.20;21.60;;;;;;5059096;28;20451;-50
2022/07/13 10:32:42;;;;;;;4.03;3.83;;;35.30;21.20;;;;;;5047671;28;20462;-51
2022/07/13 10:35:10;;;;;;;4.63;4.37;;;36.00;21.20;;;;;;5065609;28;20415;-49
2022/07/13 10:37:56;;;;;;;4.10;3.97;;;36.70;19.50;;;;;;5070965;28;20428;-52
2022/07/13 10:40:22;;;;;;;4.20;4.10;;;36.90;16.90;;;;;;5066977;28;20435;-53
2022/07/13 10:42:57;;;;;;;3.80;3.60;;;37.10;16.80;;;;;;5065708;28;20435;-53
2022/07/13 10:45:40;;;;;;;3.93;3.80;;;37.60;15.80;;;;;;5068682;28;20417;-53
2022/07/13 10:48:21;;;;;;;4.20;4.00;;;37.90;16.70;;;;;;5066777;28;20506;-52
2022/07/13 10:50:48;;;;;;;4.50;4.30;;;38.60;17.00;;;;;;5061527;28;20493;-50
2022/07/13 10:53:16;;;;;;;4.53;4.23;;;38.80;14.90;;;;;;5068863;28;20902;-51
2022/07/13 10:55:49;;;;;;;4.47;4.17;;;38.20;15.60;;;;;;5057764;28;20514;-51
2022/07/13 10:58:39;;;;;;;4.53;4.30;;;38.10;15.20;;;;;;5067616;28;20443;-54
2022/07/13 11:01:30;;;;;;;4.10;3.90;;;38.10;14.40;;;;;;5070124;28;20486;-51
2022/07/13 11:03:56;;;;;;;4.63;4.33;;;37.50;14.90;;;;;;5075676;28;20434;-51
2022/07/13 11:06:24;;;;;;;4.20;4.00;;;36.80;14.70;;;;;;5064589;28;20574;-53
2022/07/13 11:09:39;;;;;;;4.40;4.20;;;35.90;16.00;;;;;;5060802;28;20460;-53
2022/07/13 11:12:32;;;;;;;4.07;3.87;;;35.50;16.50;;;;;;5062819;28;21290;-54
2022/07/13 11:15:14;;;;;;;4.50;4.30;;;35.30;16.80;;;;;;5064103;28;20436;-51
2022/07/13 11:17:40;;;;;;;3.40;3.20;;;35.50;16.90;;;;;;5065232;28;20432;-54
2022/07/13 11:20:12;;;;;;;5.10;4.63;;;36.20;16.20;;;;;;5068447;28;20416;-53
2022/07/13 11:25:55;;;;;;;4.90;4.60;;;36.50;15.70;;;;;;5067118;28;20426;-49
2022/07/13 11:28:35;;;;;;;4.63;4.40;;;36.20;17.30;;;;;;5067283;28;20462;-54
2022/07/13 11:31:03;;;;;;;5.03;4.80;;;36.20;17.90;;;;;;5067190;28;20993;-53
2022/07/13 11:33:29;;;;;;;4.53;4.33;;;36.10;17.50;;;;;;5064210;28;20424;-52
2022/07/13 11:35:55;;;;;;;4.80;4.30;;;35.90;18.30;;;;;;5067834;28;21055;-51
2022/07/13 11:38:21;;;;;;;4.70;4.50;;;35.40;19.20;;;;;;5066320;28;20186;-51
2022/07/13 11:40:47;;;;;;;4.87;4.67;;;35.00;18.80;;;;;;5064365;28;20177;-54
2022/07/13 11:43:13;;;;;;;4.87;4.67;;;34.70;18.50;;;;;;5068113;28;20910;-50
2022/07/13 11:45:40;;;;;;;5.37;5.17;;;34.50;19.00;;;;;;5067454;28;20434;-53
2022/07/13 11:48:12;;;;;;;4.90;4.60;;;34.60;19.70;;;;;;5064668;28;20986;-53
2022/07/13 11:50:50;;;;;;;4.80;4.60;;;34.60;20.00;;;;;;5068603;28;20467;-52
2022/07/13 11:53:29;;;;;;;4.70;4.50;;;34.60;19.80;;;;;;5067148;28;20436;-55
2022/07/13 11:55:58;;;;;;;5.10;4.80;;;35.00;19.20;;;;;;5065938;28;20436;-54
2022/07/13 11:58:25;;;;;;;4.67;4.47;;;35.40;18.50;;;;;;5066534;28;20498;-54
2022/07/13 12:00:52;;;;;;;5.27;4.33;;;34.90;18.70;;;;;;5068163;28;20464;-54
2022/07/13 12:03:25;;;;;;;5.00;4.80;;;34.60;19.10;;;;;;5069179;28;20450;-53
2022/07/13 12:05:51;;;;;;;5.53;5.23;;;34.80;19.90;;;;;;5068240;28;20456;-54
2022/07/13 12:08:17;;;;;;;5.00;4.80;;;34.80;19.60;;;;;;5079011;28;20521;-53
2022/07/13 12:10:43;;;;;;;4.83;4.43;;;34.90;20.00;;;;;;5067458;28;20440;-52
2022/07/13 12:13:08;;;;;;;4.73;4.50;;;35.10;20.40;;;;;;5068040;28;20181;-52
2022/07/13 12:15:34;;;;;;;4.60;4.40;;;35.90;19.70;;;;;;5067588;28;20896;-50
2022/07/13 12:18:04;;;;;;;6.37;4.50;;;36.70;16.60;;;;;;5067867;28;20671;-52
2022/07/13 12:20:33;;;;;;;3.77;3.67;;;36.90;16.50;;;;;;5067064;28;20199;-53
2022/07/13 12:22:59;;;;;;;5.30;4.90;;;36.50;16.20;;;;;;5063281;28;20440;-52
2022/07/13 12:25:43;;;;;;;4.43;4.10;;;35.60;17.30;;;;;;5065077;28;20490;-50
2022/07/13 12:28:10;;;;;;;5.00;4.70;;;35.40;18.10;;;;;;5066537;28;20217;-52
2022/07/13 12:30:53;;;;;;;4.70;4.50;;;35.40;18.50;;;;;;5067292;28;20467;-50
2022/07/13 12:33:19;;;;;;;4.90;4.70;;;35.20;18.70;;;;;;5055688;28;20455;-52
2022/07/13 12:35:45;;;;;;;4.70;4.50;;;35.10;18.40;;;;;;5063557;28;20415;-52
2022/07/13 12:38:13;;;;;;;4.50;4.30;;;35.20;18.90;;;;;;5054239;28;20440;-52
2022/07/13 12:40:51;;;;;;;4.43;4.23;;;35.00;18.70;;;;;;4992041;28;20197;-56
2022/07/13 12:43:19;;;;;;;4.70;4.40;;;34.80;18.90;;;;;;5198626;22;20433;-51
2022/07/13 12:45:55;;;;;;;4.53;4.33;;;34.70;19.50;;;;;;5041337;28;20507;-50
2022/07/13 12:48:26;;;;;;;4.73;4.53;;;34.80;19.50;;;;;;5037094;28;20437;-50
2022/07/13 12:51:00;;;;;;;4.03;3.83;;;34.90;18.50;;;;;;4980469;28;20417;-50
2022/07/13 12:53:51;;;;;;;4.33;4.13;;;34.70;18.60;;;;;;5046270;28;20429;-52
2022/07/13 12:56:23;;;;;;;3.90;3.70;;;34.40;18.60;;;;;;5046006;28;20542;-53
2022/07/13 12:58:54;;;;;;;4.70;4.47;;;33.90;18.50;;;;;;5044231;28;20986;-47
2022/07/13 13:01:31;;;;;;;4.80;4.60;;;33.30;19.00;;;;;;5043369;28;20447;-51
2022/07/13 13:03:57;;;;;;;4.40;4.20;;;33.20;19.20;;;;;;5039806;28;20757;-52
2022/07/13 13:06:23;;;;;;;4.10;3.90;;;33.20;19.50;;;;;;5045118;28;20451;-54